sensor_id;sensor_type;location;lat;lon;timestamp;P1;durP1;ratioP1;P2;durP2;ratioP2
51214;SDS011;63849;47.546;19.254;2023-11-22T00:02:17;25.50;;;19.02;;
51214;SDS011;63849;47.546;19.254;2023-11-22T00:04:43;25.17;;;18.20;;
51214;SDS011;63849;47.546;19.254;2023-11-22T00:07:08;29.90;;;20.80;;
51214;SDS011;63849;47.546;19.254;2023-11-22T00:09:34;35.28;;;24.30;;
51214;SDS011;63849;47.546;19.254;2023-11-22T00:12:00;27.58;;;20.25;;
51214;SDS011;63849;47.546;19.254;2023-11-22T00:14:26;30.73;;;18.90;;
51214;SDS011;63849;47.546;19.254;2023-11-22T00:16:52;33.03;;;20.40;;
51214;SDS011;63849;47.546;19.254;2023-11-22T00:19:18;26.27;;;18.73;;
51214;SDS011;63849;47.546;19.254;2023-11-22T00:21:47;22.67;;;16.73;;
51214;SDS011;63849;47.546;19.254;2023-11-22T00:24:13;21.42;;;15.60;;
51214;SDS011;63849;47.546;19.254;2023-11-22T00:26:39;20.10;;;15.40;;
51214;SDS011;63849;47.546;19.254;2023-11-22T00:29:06;21.27;;;16.45;;
51214;SDS011;63849;47.546;19.254;2023-11-22T00:31:33;24.38;;;17.10;;
51214;SDS011;63849;47.546;19.254;2023-11-22T00:33:59;20.95;;;15.95;;
51214;SDS011;63849;47.546;19.254;2023-11-22T00:36:25;19.48;;;15.45;;
51214;SDS011;63849;47.546;19.254;2023-11-22T00:38:50;22.23;;;16.42;;
51214;SDS011;63849;47.546;19.254;2023-11-22T00:41:16;20.48;;;15.90;;
51214;SDS011;63849;47.546;19.254;2023-11-22T00:43:42;20.83;;;16.38;;
51214;SDS011;63849;47.546;19.254;2023-11-22T00:46:08;20.35;;;16.00;;
51214;SDS011;63849;47.546;19.254;2023-11-22T00:48:33;25.27;;;18.45;;
51214;SDS011;63849;47.546;19.254;2023-11-22T00:50:59;22.80;;;17.27;;
51214;SDS011;63849;47.546;19.254;2023-11-22T00:53:25;23.05;;;17.65;;
51214;SDS011;63849;47.546;19.254;2023-11-22T00:55:51;24.75;;;17.63;;
51214;SDS011;63849;47.546;19.254;2023-11-22T00:58:16;21.70;;;17.23;;
51214;SDS011;63849;47.546;19.254;2023-11-22T01:00:42;21.77;;;16.98;;
51214;SDS011;63849;47.546;19.254;2023-11-22T01:03:08;24.55;;;17.58;;
51214;SDS011;63849;47.546;19.254;2023-11-22T01:05:37;23.73;;;18.08;;
51214;SDS011;63849;47.546;19.254;2023-11-22T01:08:03;25.33;;;18.33;;
51214;SDS011;63849;47.546;19.254;2023-11-22T01:10:28;21.95;;;17.27;;
51214;SDS011;63849;47.546;19.254;2023-11-22T01:12:55;22.67;;;17.75;;
51214;SDS011;63849;47.546;19.254;2023-11-22T01:15:20;23.00;;;17.02;;
51214;SDS011;63849;47.546;19.254;2023-11-22T01:17:46;24.10;;;18.23;;
51214;SDS011;63849;47.546;19.254;2023-11-22T01:20:12;24.92;;;18.55;;
51214;SDS011;63849;47.546;19.254;2023-11-22T01:22:39;22.50;;;16.63;;
51214;SDS011;63849;47.546;19.254;2023-11-22T01:25:05;21.98;;;16.15;;
51214;SDS011;63849;47.546;19.254;2023-11-22T01:27:31;27.48;;;15.40;;
51214;SDS011;63849;47.546;19.254;2023-11-22T01:29:56;39.20;;;15.95;;
51214;SDS011;63849;47.546;19.254;2023-11-22T01:32:22;26.83;;;16.98;;
51214;SDS011;63849;47.546;19.254;2023-11-22T01:34:49;18.23;;;14.40;;
51214;SDS011;63849;47.546;19.254;2023-11-22T01:37:14;20.10;;;14.68;;
51214;SDS011;63849;47.546;19.254;2023-11-22T01:39:40;30.15;;;13.98;;
51214;SDS011;63849;47.546;19.254;2023-11-22T01:42:06;19.13;;;14.48;;
51214;SDS011;63849;47.546;19.254;2023-11-22T01:44:32;23.13;;;15.00;;
51214;SDS011;63849;47.546;19.254;2023-11-22T01:46:58;21.48;;;15.50;;
51214;SDS011;63849;47.546;19.254;2023-11-22T01:49:24;20.83;;;15.05;;
51214;SDS011;63849;47.546;19.254;2023-11-22T01:51:50;33.50;;;15.23;;
51214;SDS011;63849;47.546;19.254;2023-11-22T01:54:16;20.13;;;14.65;;
51214;SDS011;63849;47.546;19.254;2023-11-22T01:56:45;21.45;;;14.98;;
51214;SDS011;63849;47.546;19.254;2023-11-22T01:59:11;21.67;;;16.23;;
51214;SDS011;63849;47.546;19.254;2023-11-22T02:01:38;21.35;;;15.60;;
51214;SDS011;63849;47.546;19.254;2023-11-22T02:04:04;23.50;;;15.57;;
51214;SDS011;63849;47.546;19.254;2023-11-22T02:06:31;22.13;;;15.43;;
51214;SDS011;63849;47.546;19.254;2023-11-22T02:08:58;20.20;;;15.05;;
51214;SDS011;63849;47.546;19.254;2023-11-22T02:11:24;58.67;;;17.08;;
51214;SDS011;63849;47.546;19.254;2023-11-22T02:13:49;18.35;;;13.98;;
51214;SDS011;63849;47.546;19.254;2023-11-22T02:16:16;25.63;;;15.57;;
51214;SDS011;63849;47.546;19.254;2023-11-22T02:18:43;23.27;;;13.85;;
51214;SDS011;63849;47.546;19.254;2023-11-22T02:21:12;19.13;;;13.50;;
51214;SDS011;63849;47.546;19.254;2023-11-22T02:23:40;26.30;;;14.00;;
51214;SDS011;63849;47.546;19.254;2023-11-22T02:26:07;25.65;;;13.23;;
51214;SDS011;63849;47.546;19.254;2023-11-22T02:28:33;23.27;;;13.75;;
51214;SDS011;63849;47.546;19.254;2023-11-22T02:30:59;17.30;;;12.60;;
51214;SDS011;63849;47.546;19.254;2023-11-22T02:33:24;17.25;;;11.55;;
51214;SDS011;63849;47.546;19.254;2023-11-22T02:35:50;16.90;;;12.40;;
51214;SDS011;63849;47.546;19.254;2023-11-22T02:38:16;15.52;;;11.93;;
51214;SDS011;63849;47.546;19.254;2023-11-22T02:40:43;17.95;;;12.80;;
51214;SDS011;63849;47.546;19.254;2023-11-22T02:43:09;18.13;;;12.45;;
51214;SDS011;63849;47.546;19.254;2023-11-22T02:45:36;14.30;;;12.25;;
51214;SDS011;63849;47.546;19.254;2023-11-22T02:48:03;15.88;;;11.30;;
51214;SDS011;63849;47.546;19.254;2023-11-22T02:50:34;14.40;;;11.35;;
51214;SDS011;63849;47.546;19.254;2023-11-22T02:53:00;15.55;;;11.98;;
51214;SDS011;63849;47.546;19.254;2023-11-22T02:55:27;13.98;;;11.43;;
51214;SDS011;63849;47.546;19.254;2023-11-22T02:57:52;15.52;;;11.23;;
51214;SDS011;63849;47.546;19.254;2023-11-22T03:00:18;15.07;;;11.52;;
51214;SDS011;63849;47.546;19.254;2023-11-22T03:02:47;15.43;;;11.32;;
51214;SDS011;63849;47.546;19.254;2023-11-22T03:05:15;14.45;;;11.50;;
51214;SDS011;63849;47.546;19.254;2023-11-22T03:07:41;13.80;;;11.18;;
51214;SDS011;63849;47.546;19.254;2023-11-22T03:10:07;15.10;;;11.52;;
51214;SDS011;63849;47.546;19.254;2023-11-22T03:12:33;12.50;;;10.23;;
51214;SDS011;63849;47.546;19.254;2023-11-22T03:15:01;10.98;;;8.93;;
51214;SDS011;63849;47.546;19.254;2023-11-22T03:17:30;12.43;;;9.32;;
51214;SDS011;63849;47.546;19.254;2023-11-22T03:19:56;11.10;;;8.88;;
51214;SDS011;63849;47.546;19.254;2023-11-22T03:22:25;10.75;;;8.55;;
51214;SDS011;63849;47.546;19.254;2023-11-22T03:24:55;8.70;;;7.70;;
51214;SDS011;63849;47.546;19.254;2023-11-22T03:27:21;11.40;;;8.32;;
51214;SDS011;63849;47.546;19.254;2023-11-22T03:29:48;10.85;;;8.48;;
51214;SDS011;63849;47.546;19.254;2023-11-22T03:32:14;8.73;;;7.80;;
51214;SDS011;63849;47.546;19.254;2023-11-22T03:34:40;9.98;;;8.30;;
51214;SDS011;63849;47.546;19.254;2023-11-22T03:37:05;10.48;;;8.10;;
51214;SDS011;63849;47.546;19.254;2023-11-22T03:39:32;16.15;;;11.05;;
51214;SDS011;63849;47.546;19.254;2023-11-22T03:41:58;15.63;;;10.70;;
51214;SDS011;63849;47.546;19.254;2023-11-22T03:44:23;10.70;;;8.23;;
51214;SDS011;63849;47.546;19.254;2023-11-22T03:46:49;8.98;;;7.35;;
51214;SDS011;63849;47.546;19.254;2023-11-22T03:49:15;9.43;;;7.63;;
51214;SDS011;63849;47.546;19.254;2023-11-22T03:51:41;7.93;;;7.05;;
51214;SDS011;63849;47.546;19.254;2023-11-22T03:54:08;9.07;;;6.78;;
51214;SDS011;63849;47.546;19.254;2023-11-22T03:56:36;6.78;;;6.07;;
51214;SDS011;63849;47.546;19.254;2023-11-22T03:59:01;9.85;;;7.07;;
51214;SDS011;63849;47.546;19.254;2023-11-22T04:01:28;6.90;;;6.20;;
51214;SDS011;63849;47.546;19.254;2023-11-22T04:03:54;7.07;;;6.30;;
51214;SDS011;63849;47.546;19.254;2023-11-22T04:06:20;10.05;;;7.97;;
51214;SDS011;63849;47.546;19.254;2023-11-22T04:08:46;7.78;;;6.93;;
51214;SDS011;63849;47.546;19.254;2023-11-22T04:11:15;8.18;;;7.15;;
51214;SDS011;63849;47.546;19.254;2023-11-22T04:13:42;9.32;;;7.13;;
51214;SDS011;63849;47.546;19.254;2023-11-22T04:16:08;7.18;;;6.35;;
51214;SDS011;63849;47.546;19.254;2023-11-22T04:18:37;7.05;;;5.88;;
51214;SDS011;63849;47.546;19.254;2023-11-22T04:21:03;8.00;;;6.93;;
51214;SDS011;63849;47.546;19.254;2023-11-22T04:23:33;7.03;;;6.32;;
51214;SDS011;63849;47.546;19.254;2023-11-22T04:25:59;9.02;;;6.20;;
51214;SDS011;63849;47.546;19.254;2023-11-22T04:28:26;8.35;;;6.93;;
51214;SDS011;63849;47.546;19.254;2023-11-22T04:30:53;9.57;;;7.55;;
51214;SDS011;63849;47.546;19.254;2023-11-22T04:33:19;10.18;;;8.30;;
51214;SDS011;63849;47.546;19.254;2023-11-22T04:35:48;12.15;;;9.00;;
51214;SDS011;63849;47.546;19.254;2023-11-22T04:38:14;8.88;;;7.32;;
51214;SDS011;63849;47.546;19.254;2023-11-22T04:40:40;7.95;;;6.95;;
51214;SDS011;63849;47.546;19.254;2023-11-22T04:43:07;9.85;;;6.97;;
51214;SDS011;63849;47.546;19.254;2023-11-22T04:45:33;9.38;;;7.15;;
51214;SDS011;63849;47.546;19.254;2023-11-22T04:47:59;9.43;;;7.22;;
51214;SDS011;63849;47.546;19.254;2023-11-22T04:50:25;15.63;;;9.90;;
51214;SDS011;63849;47.546;19.254;2023-11-22T04:52:51;13.77;;;8.50;;
51214;SDS011;63849;47.546;19.254;2023-11-22T04:55:17;13.75;;;8.63;;
51214;SDS011;63849;47.546;19.254;2023-11-22T04:57:48;9.20;;;7.35;;
51214;SDS011;63849;47.546;19.254;2023-11-22T05:00:14;10.05;;;7.07;;
51214;SDS011;63849;47.546;19.254;2023-11-22T05:02:40;7.78;;;6.00;;
51214;SDS011;63849;47.546;19.254;2023-11-22T05:05:09;7.18;;;5.63;;
51214;SDS011;63849;47.546;19.254;2023-11-22T05:07:38;6.53;;;5.82;;
51214;SDS011;63849;47.546;19.254;2023-11-22T05:10:04;6.30;;;5.35;;
51214;SDS011;63849;47.546;19.254;2023-11-22T05:12:31;6.82;;;5.50;;
51214;SDS011;63849;47.546;19.254;2023-11-22T05:14:56;7.05;;;5.90;;
51214;SDS011;63849;47.546;19.254;2023-11-22T05:17:22;7.28;;;6.13;;
51214;SDS011;63849;47.546;19.254;2023-11-22T05:19:49;6.38;;;5.78;;
51214;SDS011;63849;47.546;19.254;2023-11-22T05:22:15;6.50;;;5.40;;
51214;SDS011;63849;47.546;19.254;2023-11-22T05:24:41;5.55;;;4.55;;
51214;SDS011;63849;47.546;19.254;2023-11-22T05:27:07;5.85;;;5.22;;
51214;SDS011;63849;47.546;19.254;2023-11-22T05:29:34;6.80;;;5.35;;
51214;SDS011;63849;47.546;19.254;2023-11-22T05:32:00;5.75;;;5.20;;
51214;SDS011;63849;47.546;19.254;2023-11-22T05:34:27;6.65;;;5.78;;
51214;SDS011;63849;47.546;19.254;2023-11-22T05:36:57;8.10;;;5.63;;
51214;SDS011;63849;47.546;19.254;2023-11-22T05:39:22;6.85;;;5.80;;
51214;SDS011;63849;47.546;19.254;2023-11-22T05:41:49;7.03;;;5.72;;
51214;SDS011;63849;47.546;19.254;2023-11-22T05:44:18;13.55;;;6.05;;
51214;SDS011;63849;47.546;19.254;2023-11-22T05:46:44;7.70;;;6.10;;
51214;SDS011;63849;47.546;19.254;2023-11-22T05:49:09;7.88;;;6.07;;
51214;SDS011;63849;47.546;19.254;2023-11-22T05:51:35;13.05;;;9.60;;
51214;SDS011;63849;47.546;19.254;2023-11-22T05:54:02;17.40;;;12.00;;
51214;SDS011;63849;47.546;19.254;2023-11-22T05:56:28;12.65;;;9.40;;
51214;SDS011;63849;47.546;19.254;2023-11-22T05:58:54;8.32;;;6.75;;
51214;SDS011;63849;47.546;19.254;2023-11-22T06:01:20;8.98;;;6.88;;
51214;SDS011;63849;47.546;19.254;2023-11-22T06:03:46;7.53;;;6.15;;
51214;SDS011;63849;47.546;19.254;2023-11-22T06:06:13;8.40;;;6.18;;
51214;SDS011;63849;47.546;19.254;2023-11-22T06:08:39;9.70;;;6.10;;
51214;SDS011;63849;47.546;19.254;2023-11-22T06:11:05;6.15;;;5.55;;
51214;SDS011;63849;47.546;19.254;2023-11-22T06:13:32;7.07;;;6.13;;
51214;SDS011;63849;47.546;19.254;2023-11-22T06:15:58;6.82;;;5.80;;
51214;SDS011;63849;47.546;19.254;2023-11-22T06:18:23;9.35;;;6.78;;
51214;SDS011;63849;47.546;19.254;2023-11-22T06:20:55;8.48;;;6.28;;
51214;SDS011;63849;47.546;19.254;2023-11-22T06:23:23;6.65;;;5.40;;
51214;SDS011;63849;47.546;19.254;2023-11-22T06:25:49;7.53;;;5.78;;
51214;SDS011;63849;47.546;19.254;2023-11-22T06:28:15;9.70;;;6.47;;
51214;SDS011;63849;47.546;19.254;2023-11-22T06:30:40;7.75;;;6.68;;
51214;SDS011;63849;47.546;19.254;2023-11-22T06:33:07;9.02;;;6.85;;
51214;SDS011;63849;47.546;19.254;2023-11-22T06:35:33;8.23;;;6.03;;
51214;SDS011;63849;47.546;19.254;2023-11-22T06:37:58;5.75;;;4.93;;
51214;SDS011;63849;47.546;19.254;2023-11-22T06:40:24;5.03;;;4.43;;
51214;SDS011;63849;47.546;19.254;2023-11-22T06:42:50;7.95;;;5.32;;
51214;SDS011;63849;47.546;19.254;2023-11-22T06:45:16;5.18;;;4.68;;
51214;SDS011;63849;47.546;19.254;2023-11-22T06:47:42;6.57;;;5.25;;
51214;SDS011;63849;47.546;19.254;2023-11-22T06:50:09;5.75;;;4.95;;
51214;SDS011;63849;47.546;19.254;2023-11-22T06:52:36;6.30;;;4.97;;
51214;SDS011;63849;47.546;19.254;2023-11-22T06:55:03;5.97;;;4.90;;
51214;SDS011;63849;47.546;19.254;2023-11-22T06:57:30;7.40;;;4.88;;
51214;SDS011;63849;47.546;19.254;2023-11-22T06:59:56;6.95;;;5.43;;
51214;SDS011;63849;47.546;19.254;2023-11-22T07:02:22;8.68;;;6.90;;
51214;SDS011;63849;47.546;19.254;2023-11-22T07:04:48;9.27;;;7.78;;
51214;SDS011;63849;47.546;19.254;2023-11-22T07:07:14;8.73;;;7.82;;
51214;SDS011;63849;47.546;19.254;2023-11-22T07:09:43;8.68;;;7.25;;
51214;SDS011;63849;47.546;19.254;2023-11-22T07:12:09;9.50;;;7.45;;
51214;SDS011;63849;47.546;19.254;2023-11-22T07:14:35;11.02;;;9.65;;
51214;SDS011;63849;47.546;19.254;2023-11-22T07:17:02;11.43;;;9.20;;
51214;SDS011;63849;47.546;19.254;2023-11-22T07:19:29;8.55;;;7.13;;
51214;SDS011;63849;47.546;19.254;2023-11-22T07:21:54;10.13;;;7.35;;
51214;SDS011;63849;47.546;19.254;2023-11-22T07:24:20;8.88;;;6.60;;
51214;SDS011;63849;47.546;19.254;2023-11-22T07:26:46;9.55;;;7.10;;
51214;SDS011;63849;47.546;19.254;2023-11-22T07:29:12;9.73;;;7.85;;
51214;SDS011;63849;47.546;19.254;2023-11-22T07:31:38;10.27;;;8.15;;
51214;SDS011;63849;47.546;19.254;2023-11-22T07:34:05;8.77;;;6.43;;
51214;SDS011;63849;47.546;19.254;2023-11-22T07:36:31;8.63;;;6.10;;
51214;SDS011;63849;47.546;19.254;2023-11-22T07:38:57;10.05;;;7.10;;
51214;SDS011;63849;47.546;19.254;2023-11-22T07:41:24;10.00;;;7.15;;
51214;SDS011;63849;47.546;19.254;2023-11-22T07:43:51;9.32;;;7.57;;
51214;SDS011;63849;47.546;19.254;2023-11-22T07:46:17;8.52;;;6.90;;
51214;SDS011;63849;47.546;19.254;2023-11-22T07:48:44;7.50;;;6.03;;
51214;SDS011;63849;47.546;19.254;2023-11-22T07:51:12;6.95;;;6.20;;
51214;SDS011;63849;47.546;19.254;2023-11-22T07:53:41;6.93;;;5.47;;
51214;SDS011;63849;47.546;19.254;2023-11-22T07:56:08;8.20;;;6.05;;
51214;SDS011;63849;47.546;19.254;2023-11-22T07:58:36;9.23;;;6.20;;
51214;SDS011;63849;47.546;19.254;2023-11-22T08:01:02;5.50;;;5.00;;
51214;SDS011;63849;47.546;19.254;2023-11-22T08:03:31;7.57;;;6.47;;
51214;SDS011;63849;47.546;19.254;2023-11-22T08:05:57;8.73;;;6.85;;
51214;SDS011;63849;47.546;19.254;2023-11-22T08:08:22;7.63;;;6.82;;
51214;SDS011;63849;47.546;19.254;2023-11-22T08:10:49;7.13;;;5.57;;
51214;SDS011;63849;47.546;19.254;2023-11-22T08:13:18;6.57;;;5.38;;
51214;SDS011;63849;47.546;19.254;2023-11-22T08:15:50;6.17;;;4.97;;
51214;SDS011;63849;47.546;19.254;2023-11-22T08:18:16;6.10;;;5.50;;
51214;SDS011;63849;47.546;19.254;2023-11-22T08:20:42;8.80;;;5.75;;
51214;SDS011;63849;47.546;19.254;2023-11-22T08:23:09;8.90;;;5.15;;
51214;SDS011;63849;47.546;19.254;2023-11-22T08:25:35;6.35;;;4.88;;
51214;SDS011;63849;47.546;19.254;2023-11-22T08:28:03;6.35;;;5.35;;
51214;SDS011;63849;47.546;19.254;2023-11-22T08:30:29;8.02;;;6.22;;
51214;SDS011;63849;47.546;19.254;2023-11-22T08:32:58;6.60;;;5.95;;
51214;SDS011;63849;47.546;19.254;2023-11-22T08:35:23;6.15;;;5.47;;
51214;SDS011;63849;47.546;19.254;2023-11-22T08:37:49;7.13;;;5.32;;
51214;SDS011;63849;47.546;19.254;2023-11-22T08:40:16;7.43;;;5.97;;
51214;SDS011;63849;47.546;19.254;2023-11-22T08:42:47;5.80;;;5.25;;
51214;SDS011;63849;47.546;19.254;2023-11-22T08:45:13;6.80;;;5.75;;
51214;SDS011;63849;47.546;19.254;2023-11-22T08:47:42;7.35;;;6.07;;
51214;SDS011;63849;47.546;19.254;2023-11-22T08:50:08;7.75;;;6.78;;
51214;SDS011;63849;47.546;19.254;2023-11-22T08:52:38;7.07;;;6.38;;
51214;SDS011;63849;47.546;19.254;2023-11-22T08:55:05;7.97;;;6.88;;
51214;SDS011;63849;47.546;19.254;2023-11-22T08:57:35;8.75;;;7.88;;
51214;SDS011;63849;47.546;19.254;2023-11-22T09:02:34;9.30;;;7.32;;
51214;SDS011;63849;47.546;19.254;2023-11-22T09:05:01;8.40;;;6.60;;
51214;SDS011;63849;47.546;19.254;2023-11-22T09:07:31;8.98;;;7.72;;
51214;SDS011;63849;47.546;19.254;2023-11-22T09:09:58;10.52;;;7.97;;
51214;SDS011;63849;47.546;19.254;2023-11-22T09:12:25;9.90;;;7.38;;
51214;SDS011;63849;47.546;19.254;2023-11-22T09:14:52;10.18;;;7.20;;
51214;SDS011;63849;47.546;19.254;2023-11-22T09:17:18;15.52;;;7.88;;
51214;SDS011;63849;47.546;19.254;2023-11-22T09:19:45;9.13;;;7.75;;
51214;SDS011;63849;47.546;19.254;2023-11-22T09:22:11;8.50;;;7.15;;
51214;SDS011;63849;47.546;19.254;2023-11-22T09:24:38;9.25;;;7.45;;
51214;SDS011;63849;47.546;19.254;2023-11-22T09:27:05;8.95;;;7.93;;
51214;SDS011;63849;47.546;19.254;2023-11-22T09:29:31;9.63;;;7.18;;
51214;SDS011;63849;47.546;19.254;2023-11-22T09:31:58;9.00;;;8.00;;
51214;SDS011;63849;47.546;19.254;2023-11-22T09:34:26;7.95;;;6.93;;
51214;SDS011;63849;47.546;19.254;2023-11-22T09:36:52;9.80;;;7.43;;
51214;SDS011;63849;47.546;19.254;2023-11-22T09:39:19;9.65;;;8.00;;
51214;SDS011;63849;47.546;19.254;2023-11-22T09:41:46;8.52;;;7.53;;
51214;SDS011;63849;47.546;19.254;2023-11-22T09:44:13;8.57;;;7.68;;
51214;SDS011;63849;47.546;19.254;2023-11-22T09:46:41;9.25;;;7.50;;
51214;SDS011;63849;47.546;19.254;2023-11-22T09:49:08;8.82;;;6.90;;
51214;SDS011;63849;47.546;19.254;2023-11-22T09:51:40;9.18;;;7.22;;
51214;SDS011;63849;47.546;19.254;2023-11-22T09:54:08;10.60;;;7.45;;
51214;SDS011;63849;47.546;19.254;2023-11-22T09:56:39;8.23;;;7.38;;
51214;SDS011;63849;47.546;19.254;2023-11-22T09:59:06;14.38;;;10.55;;
51214;SDS011;63849;47.546;19.254;2023-11-22T10:01:33;11.10;;;8.73;;
51214;SDS011;63849;47.546;19.254;2023-11-22T10:04:02;10.52;;;7.95;;
51214;SDS011;63849;47.546;19.254;2023-11-22T10:06:31;8.63;;;7.43;;
51214;SDS011;63849;47.546;19.254;2023-11-22T10:09:00;8.45;;;7.22;;
51214;SDS011;63849;47.546;19.254;2023-11-22T10:11:31;7.50;;;6.47;;
51214;SDS011;63849;47.546;19.254;2023-11-22T10:13:58;7.75;;;6.95;;
51214;SDS011;63849;47.546;19.254;2023-11-22T10:16:24;13.13;;;11.25;;
51214;SDS011;63849;47.546;19.254;2023-11-22T10:18:49;18.25;;;14.27;;
51214;SDS011;63849;47.546;19.254;2023-11-22T10:21:33;12.02;;;8.60;;
51214;SDS011;63849;47.546;19.254;2023-11-22T10:24:00;71.35;;;43.78;;
51214;SDS011;63849;47.546;19.254;2023-11-22T10:26:29;14.27;;;11.82;;
51214;SDS011;63849;47.546;19.254;2023-11-22T10:28:56;41.20;;;28.92;;
51214;SDS011;63849;47.546;19.254;2023-11-22T10:31:23;33.00;;;26.08;;
51214;SDS011;63849;47.546;19.254;2023-11-22T10:33:49;10.05;;;8.98;;
51214;SDS011;63849;47.546;19.254;2023-11-22T10:36:16;8.57;;;7.75;;
51214;SDS011;63849;47.546;19.254;2023-11-22T10:38:46;8.25;;;6.78;;
51214;SDS011;63849;47.546;19.254;2023-11-22T10:41:12;8.23;;;7.20;;
51214;SDS011;63849;47.546;19.254;2023-11-22T10:43:38;8.07;;;7.03;;
51214;SDS011;63849;47.546;19.254;2023-11-22T10:46:05;16.63;;;13.88;;
51214;SDS011;63849;47.546;19.254;2023-11-22T10:48:31;10.93;;;9.57;;
51214;SDS011;63849;47.546;19.254;2023-11-22T10:51:00;8.75;;;5.90;;
51214;SDS011;63849;47.546;19.254;2023-11-22T10:53:32;8.10;;;6.72;;
51214;SDS011;63849;47.546;19.254;2023-11-22T10:56:36;9.45;;;8.25;;
51214;SDS011;63849;47.546;19.254;2023-11-22T10:58:56;12.27;;;7.78;;
51214;SDS011;63849;47.546;19.254;2023-11-22T11:01:25;9.05;;;7.35;;
51214;SDS011;63849;47.546;19.254;2023-11-22T11:04:07;7.88;;;7.07;;
51214;SDS011;63849;47.546;19.254;2023-11-22T11:06:36;8.10;;;6.80;;
51214;SDS011;63849;47.546;19.254;2023-11-22T11:09:06;8.10;;;6.80;;
51214;SDS011;63849;47.546;19.254;2023-11-22T11:11:36;11.70;;;7.28;;
51214;SDS011;63849;47.546;19.254;2023-11-22T11:14:04;13.73;;;8.77;;
51214;SDS011;63849;47.546;19.254;2023-11-22T11:16:33;15.73;;;10.63;;
51214;SDS011;63849;47.546;19.254;2023-11-22T11:19:13;31.35;;;16.25;;
51214;SDS011;63849;47.546;19.254;2023-11-22T11:21:40;20.60;;;13.48;;
51214;SDS011;63849;47.546;19.254;2023-11-22T11:24:06;13.30;;;9.07;;
51214;SDS011;63849;47.546;19.254;2023-11-22T11:26:32;12.40;;;9.35;;
51214;SDS011;63849;47.546;19.254;2023-11-22T11:29:01;12.70;;;9.73;;
51214;SDS011;63849;47.546;19.254;2023-11-22T11:31:31;9.15;;;7.85;;
51214;SDS011;63849;47.546;19.254;2023-11-22T11:34:02;11.25;;;8.57;;
51214;SDS011;63849;47.546;19.254;2023-11-22T11:36:31;9.05;;;8.02;;
51214;SDS011;63849;47.546;19.254;2023-11-22T11:39:00;10.40;;;7.65;;
51214;SDS011;63849;47.546;19.254;2023-11-22T11:41:34;9.48;;;7.57;;
51214;SDS011;63849;47.546;19.254;2023-11-22T11:44:07;7.97;;;7.18;;
51214;SDS011;63849;47.546;19.254;2023-11-22T11:46:37;11.88;;;8.40;;
51214;SDS011;63849;47.546;19.254;2023-11-22T11:49:06;10.02;;;7.53;;
51214;SDS011;63849;47.546;19.254;2023-11-22T11:51:33;11.68;;;7.85;;
51214;SDS011;63849;47.546;19.254;2023-11-22T11:54:00;9.63;;;6.97;;
51214;SDS011;63849;47.546;19.254;2023-11-22T11:56:26;8.40;;;7.50;;
51214;SDS011;63849;47.546;19.254;2023-11-22T11:58:55;7.68;;;6.97;;
51214;SDS011;63849;47.546;19.254;2023-11-22T12:01:27;9.52;;;7.82;;
51214;SDS011;63849;47.546;19.254;2023-11-22T12:03:55;8.95;;;7.25;;
51214;SDS011;63849;47.546;19.254;2023-11-22T12:06:20;11.70;;;7.80;;
51214;SDS011;63849;47.546;19.254;2023-11-22T12:08:46;8.90;;;7.18;;
51214;SDS011;63849;47.546;19.254;2023-11-22T12:11:12;7.25;;;6.50;;
51214;SDS011;63849;47.546;19.254;2023-11-22T12:13:42;8.95;;;6.97;;
51214;SDS011;63849;47.546;19.254;2023-11-22T12:16:13;8.05;;;7.10;;
51214;SDS011;63849;47.546;19.254;2023-11-22T12:21:07;8.32;;;6.80;;
51214;SDS011;63849;47.546;19.254;2023-11-22T12:23:33;9.18;;;7.18;;
51214;SDS011;63849;47.546;19.254;2023-11-22T12:26:01;8.70;;;6.47;;
51214;SDS011;63849;47.546;19.254;2023-11-22T12:28:27;9.45;;;7.70;;
51214;SDS011;63849;47.546;19.254;2023-11-22T12:30:54;7.32;;;6.43;;
51214;SDS011;63849;47.546;19.254;2023-11-22T12:33:20;7.93;;;6.75;;
51214;SDS011;63849;47.546;19.254;2023-11-22T12:35:46;7.70;;;6.03;;
51214;SDS011;63849;47.546;19.254;2023-11-22T12:38:14;8.10;;;6.18;;
51214;SDS011;63849;47.546;19.254;2023-11-22T12:40:45;8.02;;;6.45;;
51214;SDS011;63849;47.546;19.254;2023-11-22T12:43:12;9.50;;;8.52;;
51214;SDS011;63849;47.546;19.254;2023-11-22T12:45:39;7.18;;;6.03;;
51214;SDS011;63849;47.546;19.254;2023-11-22T12:50:50;8.43;;;6.07;;
51214;SDS011;63849;47.546;19.254;2023-11-22T12:53:17;8.77;;;6.20;;
51214;SDS011;63849;47.546;19.254;2023-11-22T12:55:50;7.07;;;6.30;;
51214;SDS011;63849;47.546;19.254;2023-11-22T12:58:20;8.32;;;7.00;;
51214;SDS011;63849;47.546;19.254;2023-11-22T13:00:53;7.75;;;6.95;;
51214;SDS011;63849;47.546;19.254;2023-11-22T13:03:26;10.85;;;7.57;;
51214;SDS011;63849;47.546;19.254;2023-11-22T13:05:53;8.40;;;7.32;;
51214;SDS011;63849;47.546;19.254;2023-11-22T13:08:19;10.38;;;8.55;;
51214;SDS011;63849;47.546;19.254;2023-11-22T13:10:47;10.45;;;8.68;;
51214;SDS011;63849;47.546;19.254;2023-11-22T13:13:23;7.10;;;6.22;;
51214;SDS011;63849;47.546;19.254;2023-11-22T13:15:50;7.65;;;6.40;;
51214;SDS011;63849;47.546;19.254;2023-11-22T13:18:16;8.23;;;6.93;;
51214;SDS011;63849;47.546;19.254;2023-11-22T13:20:43;7.93;;;6.18;;
51214;SDS011;63849;47.546;19.254;2023-11-22T13:23:09;9.57;;;6.82;;
51214;SDS011;63849;47.546;19.254;2023-11-22T13:25:35;7.20;;;6.40;;
51214;SDS011;63849;47.546;19.254;2023-11-22T13:28:02;8.52;;;5.93;;
51214;SDS011;63849;47.546;19.254;2023-11-22T13:30:29;10.48;;;7.70;;
51214;SDS011;63849;47.546;19.254;2023-11-22T13:32:55;7.95;;;6.43;;
51214;SDS011;63849;47.546;19.254;2023-11-22T13:35:25;11.43;;;8.52;;
51214;SDS011;63849;47.546;19.254;2023-11-22T13:37:52;12.57;;;7.53;;
51214;SDS011;63849;47.546;19.254;2023-11-22T13:40:18;8.35;;;6.80;;
51214;SDS011;63849;47.546;19.254;2023-11-22T13:42:50;7.28;;;6.57;;
51214;SDS011;63849;47.546;19.254;2023-11-22T13:45:19;7.65;;;6.35;;
51214;SDS011;63849;47.546;19.254;2023-11-22T13:47:49;11.00;;;8.07;;
51214;SDS011;63849;47.546;19.254;2023-11-22T13:50:25;9.80;;;7.03;;
51214;SDS011;63849;47.546;19.254;2023-11-22T13:52:55;8.93;;;7.13;;
51214;SDS011;63849;47.546;19.254;2023-11-22T13:55:22;10.93;;;6.65;;
51214;SDS011;63849;47.546;19.254;2023-11-22T13:57:52;6.55;;;5.82;;
51214;SDS011;63849;47.546;19.254;2023-11-22T14:00:26;9.88;;;6.78;;
51214;SDS011;63849;47.546;19.254;2023-11-22T14:02:57;7.70;;;6.00;;
51214;SDS011;63849;47.546;19.254;2023-11-22T14:05:29;6.90;;;5.90;;
51214;SDS011;63849;47.546;19.254;2023-11-22T14:07:55;8.05;;;6.70;;
51214;SDS011;63849;47.546;19.254;2023-11-22T14:10:21;9.63;;;7.10;;
51214;SDS011;63849;47.546;19.254;2023-11-22T14:12:50;10.68;;;8.60;;
51214;SDS011;63849;47.546;19.254;2023-11-22T14:15:16;7.03;;;6.32;;
51214;SDS011;63849;47.546;19.254;2023-11-22T14:17:42;7.13;;;6.43;;
51214;SDS011;63849;47.546;19.254;2023-11-22T14:20:12;26.30;;;16.05;;
51214;SDS011;63849;47.546;19.254;2023-11-22T14:22:39;23.42;;;15.43;;
51214;SDS011;63849;47.546;19.254;2023-11-22T14:25:06;36.13;;;23.67;;
51214;SDS011;63849;47.546;19.254;2023-11-22T14:27:41;24.55;;;15.93;;
51214;SDS011;63849;47.546;19.254;2023-11-22T14:30:12;26.25;;;16.38;;
51214;SDS011;63849;47.546;19.254;2023-11-22T14:32:40;59.38;;;31.10;;
51214;SDS011;63849;47.546;19.254;2023-11-22T14:35:09;17.88;;;12.43;;